• Join FlightAware (Why Join?)
  • Login
  • US Flag 
11:40PM EDT


 

Airport Tracker/Info


-or-


 

Live Flight TrackerFlight Track Log ✈ EJA947 ✈ 21-Apr-2013 ✈ KBED - KMDW

Flight Track Log - Related Links

Times and Time Zones

All times are in EDT time to prevent confusion due to time zone crossing. See the EJA947 flight status page for this flight to view local times or setup timezone preferences in your user account.

Time Position Orientation Groundspeed Altitude Reporting Facility
EDT Latitude Longitude Course Direction KTS MPH feet Rate Location/Type
06:07PM 42.4667 -71.3167 294° West 182 209 1,300  Level KA90
06:08PM 42.5000 -71.4167 294° West 247 284 2,100 1,020 Climbing KA90
06:09PM 42.5500 -71.4167 360° North 226 260 3,600 2,700 Climbing KA90
06:11PM 42.6553 -71.3108 36° Northeast 253 291 9,900 2,940 Climbing Boston Center
06:12PM 42.7344 -71.2953 North 266 306 12,100 2,100 Climbing Boston Center
06:13PM 42.7892 -71.3736 314° West 271 312 14,200 2,400 Climbing Boston Center
06:14PM 42.8050 -71.5147 279° West 277 319 17,000 2,160 Climbing Boston Center
06:15PM 42.8164 -71.6306 278° West 311 358 18,600 2,100 Climbing Boston Center
06:16PM 42.8297 -71.7636 278° West 337 388 21,300 2,460 Climbing Boston Center
06:17PM 42.8408 -71.8964 277° West 355 409 23,600 2,340 Climbing Boston Center
06:18PM 42.8539 -72.0350 277° West 362 417 26,000 2,220 Climbing Boston Center
06:19PM 42.8689 -72.1767 278° West 374 430 28,100 1,860 Climbing Boston Center
06:20PM 42.8858 -72.3183 279° West 374 430 29,800 2,040 Climbing Boston Center
06:21PM 42.9006 -72.4656 278° West 386 444 32,200 2,460 Climbing Boston Center
06:22PM 42.9108 -72.6103 276° West 391 450 34,800 2,100 Climbing Boston Center
06:23PM 42.9189 -72.7717 274° West 384 442 36,500 1,620 Climbing Boston Center
06:24PM 42.9289 -72.9194 275° West 391 450 38,100 1,500 Climbing Boston Center
06:25PM 42.9447 -73.0556 279° West 397 457 39,500 900 Climbing Boston Center
06:26PM 42.9564 -73.2061 276° West 397 457 40,000 240 Climbing Boston Center
06:27PM 42.9675 -73.3792 275° West 416 479 40,000  Level Boston Center
06:28PM 42.9806 -73.5469 276° West 430 495 40,000  Level Boston Center
06:29PM 42.9936 -73.7117 276° West 441 507 40,000  Level Boston Center
06:30PM 43.0081 -73.8853 277° West 447 514 40,000  Level Boston Center
06:31PM 43.0206 -74.0531 276° West 447 514 40,000  Level Boston Center
06:32PM 43.0347 -74.2239 277° West 447 514 40,000  Level Boston Center
06:33PM 43.0464 -74.3892 276° West 447 514 40,000  Level Boston Center
06:34PM 43.0581 -74.5600 275° West 447 514 40,000  Level Boston Center
06:35PM 43.0672 -74.7308 274° West 447 514 40,000  Level Boston Center
06:36PM 43.0803 -74.9019 276° West 452 520 40,000  Level Boston Center
06:37PM 43.0894 -75.0531 275° West 452 520 40,000  Level Boston Center
06:38PM 43.1022 -75.2242 276° West 452 520 40,000  Level Boston Center
06:39PM 43.1122 -75.3981 275° West 459 528 40,000  Level Boston Center
06:40PM 43.1244 -75.5722 276° West 465 535 40,000  Level Boston Center
06:41PM 43.1361 -75.7436 275° West 465 535 40,000 -60 Level Boston Center
06:42PM 43.1456 -75.9178 274° West 465 535 39,900  Descending Boston Center
06:43PM 43.1547 -76.0919 274° West 465 535 40,000  Climbing Boston Center
06:44PM 43.1147 -76.3594 259° West 445 512 40,000  Level Cleveland Center
06:45PM 43.0639 -76.5136 246° West 445 512 40,000  Level Cleveland Center
06:46PM 43.0131 -76.6731 246° West 455 524 40,000  Level Cleveland Center
06:47PM 42.9619 -76.8294 246° West 455 524 40,000  Level Cleveland Center
06:48PM 42.9108 -76.9856 246° West 455 524 40,000  Level Cleveland Center
06:49PM 42.8592 -77.1417 246° West 455 524 40,000  Level Cleveland Center
06:50PM 42.8075 -77.3003 246° West 455 524 40,000  Level Cleveland Center
06:51PM 42.7575 -77.4528 246° West 449 517 40,000  Level Cleveland Center
06:52PM 42.7075 -77.6133 247° West 447 514 40,000  Level Cleveland Center
06:53PM 42.6531 -77.7658 244° Southwest 447 514 40,000  Level Cleveland Center
06:54PM 42.5967 -77.9375 246° West 447 514 40,000  Level Cleveland Center
06:55PM 42.5458 -78.0889 246° West 447 514 40,000  Level Cleveland Center
06:56PM 42.4928 -78.2489 246° West 447 514 40,000  Level Cleveland Center
06:57PM 42.4397 -78.4028 245° Southwest 453 521 40,000  Level Cleveland Center
06:58PM 42.3861 -78.5592 245° Southwest 453 521 40,000  Level Cleveland Center
06:59PM 42.3325 -78.7181 246° West 453 521 40,000  Level Cleveland Center
07:00PM 42.2767 -78.8742 244° Southwest 458 527 40,000  Level Cleveland Center
07:01PM 42.2286 -79.0100 244° Southwest 458 527 40,000  Level Cleveland Center
07:02PM 42.1953 -79.1792 255° West 458 527 40,000  Level Cleveland Center
07:03PM 42.1744 -79.3475 261° West 464 534 40,000  Level Cleveland Center
07:04PM 42.1511 -79.5189 260° West 464 534 40,000  Level Cleveland Center
07:05PM 42.1317 -79.6872 261° West 469 540 40,000  Level Cleveland Center
07:06PM 42.1097 -79.8556 260° West 469 540 40,000  Level Cleveland Center
07:07PM 42.0839 -80.0489 260° West 469 540 40,000  Level Cleveland Center
07:08PM 42.0594 -80.2167 259° West 469 540 40,000  Level Cleveland Center
07:09PM 42.0369 -80.3903 260° West 469 540 40,000  Level Cleveland Center
07:10PM 42.0142 -80.5636 260° West 469 540 40,000  Level Cleveland Center
07:11PM 41.9911 -80.7144 258° West 469 540 40,000  Level Cleveland Center
07:12PM 41.9658 -80.8903 259° West 469 540 40,000  Level Cleveland Center
07:13PM 41.9444 -81.0633 261° West 469 540 40,000  Level Cleveland Center
07:14PM 41.9186 -81.2361 259° West 469 540 40,000  Level Cleveland Center
07:15PM 41.8944 -81.4033 259° West 469 540 40,000  Level Cleveland Center
07:16PM 41.8703 -81.5731 259° West 469 540 40,000  Level Cleveland Center
07:17PM 41.8436 -81.7481 258° West 469 540 40,000  Level Cleveland Center
07:18PM 41.8189 -81.9178 259° West 469 540 40,000  Level Cleveland Center
07:19PM 41.7936 -82.0869 259° West 469 540 40,000  Level Cleveland Center
07:20PM 41.7683 -82.2592 259° West 469 540 40,000  Level Cleveland Center
07:21PM 41.7511 -82.4314 262° West 469 540 40,000  Level Cleveland Center
07:22PM 41.7292 -82.6197 261° West 469 540 40,000  Level Cleveland Center
07:23PM 41.7072 -82.7917 260° West 469 540 40,000  Level Cleveland Center
07:24PM 41.6872 -82.9661 261° West 469 540 40,000  Level Cleveland Center
07:25PM 41.6667 -83.1406 261° West 469 540 40,000  Level Cleveland Center
07:26PM 41.6481 -83.3119 262° West 475 547 40,000  Level Cleveland Center
07:27PM 41.6250 -83.4861 260° West 480 552 40,000  Level Cleveland Center
07:28PM 41.6058 -83.6603 262° West 480 552 40,000  Level Cleveland Center
07:29PM 41.5844 -83.8342 261° West 480 552 40,000 -120 Level Cleveland Center
07:30PM 41.5606 -84.0078 260° West 485 558 39,800 -1,680 Descending Cleveland Center
07:32PM 41.5272 -84.2886 261° West 456 525 35,500 -2,520 Descending Chicago Center
07:33PM 41.5064 -84.4500 260° West 443 510 33,000 -2,520 Descending Chicago Center
07:34PM 41.4844 -84.6242 261° West 467 537 30,400 -1,500 Descending Chicago Center
07:35PM 41.4864 -84.8047 271° West 487 560 30,000 -300 Descending Chicago Center
07:36PM 41.4936 -84.9800 273° West 478 550 29,900 -1,020 Descending Chicago Center
07:37PM 41.4989 -85.1517 272° West 464 534 27,900 -2,040 Descending Chicago Center
07:38PM 41.5039 -85.3283 272° West 469 540 25,800 -1,920 Descending Chicago Center
07:39PM 41.5094 -85.5028 272° West 459 528 24,000 -1,740 Descending Chicago Center
07:40PM 41.5150 -85.6656 273° West 434 499 22,300 -2,040 Descending Chicago Center
07:41PM 41.5197 -85.8567 272° West 427 491 19,900 -2,220 Descending Chicago Center
07:42PM 41.5239 -86.0056 272° West 399 459 17,800 -2,340 Descending Chicago Center
07:43PM 41.5239 -86.1408 270° West 367 422 15,100 -2,580 Descending Chicago Center
07:44PM 41.5231 -86.2919 270° West 406 467 12,500 -2,400 Descending Chicago Center
07:45PM 41.5233 -86.4333 270° West 376 433 10,200 -1,260 Descending Chicago Center
07:46PM 41.5217 -86.5664 269° West 362 417 10,000 -120 Descending Chicago Center
07:47PM 41.5203 -86.7278 269° West 360 414 10,000 -180 Level Chicago Center
07:48PM 41.5203 -86.8386 270° West 292 336 9,700 -780 Descending Chicago Center
07:49PM 41.5186 -86.9425 269° West 283 326 8,500 -1,260 Descending Chicago Center
07:50PM 41.5183 -87.0431 270° West 275 316 7,200 -1,260 Descending Chicago Center
07:52PM 41.5261 -87.1422 276° West 272 313 6,000 -840 Descending Chicago Center
07:52PM 41.5333 -87.2000 279° West 270 311 6,000 -240 Level Chicago TRACON
07:53PM 41.5333 -87.3167 270° West 272 313 5,700 -900 Descending Chicago TRACON
07:54PM 41.5500 -87.4167 283° West 267 307 4,200 -1,140 Descending Chicago TRACON
07:55PM 41.5464 -87.4567 263° West 265 305 4,000 -180 Descending Chicago Center
07:56PM 41.5564 -87.5517 278° West 263 303 4,000  Level Chicago Center
07:57PM 41.5656 -87.6494 277° West 264 304 4,000  Level Chicago Center
07:58PM 41.5728 -87.7431 276° West 259 298 4,000  Level Chicago Center
07:59PM 41.5625 -87.8247 260° West 209 241 4,000  Level Chicago Center
08:00PM 41.5442 -87.8881 249° West 192 221 4,000  Level Chicago Center
08:01PM 41.5625 -87.9486 292° West 191 220 4,000  Level Chicago Center
08:02PM 41.6067 -87.9700 340° North 205 236 4,000 -180 Level Chicago Center
08:03PM 41.6564 -87.9319 30° Northeast 215 247 3,700 -720 Descending Chicago Center
08:04PM 41.6933 -87.8686 52° Northeast 191 220 2,600 -720 Descending Chicago Center
08:05PM 41.7294 -87.8239 43° Northeast 183 211 2,300 -240 Descending Chicago Center
08:06PM 41.7833 -87.8500 340° North 174 200 2,100 -240 Descending Chicago TRACON
08:07PM 41.8167 -87.8167 37° Northeast 150 173 1,800 -420 Descending Chicago TRACON
08:08PM 41.8167 -87.7833 90° East 120 138 1,300 -600 Descending Chicago TRACON